Terminal Aerodrome Forecast
Issued by NWS

Home | Current Version | Previous Version | Text Only | Print | Product List | Glossary On
Versions: 1 2 3 4 5 6 7 8 9 10 11 12 13 14 15 16 17 18 19 20 21 22 23 24 25 26 27 28 29 30 31 32 33
851
FTUS44 KHGX 261845 AAA
TAFCXO
TAF AMD
KCXO 261845Z 2619/2718 15013G23KT P6SM SCT035 BKN070
     FM262000 14010G20KT P6SM VCSH BKN035
     FM270100 14008KT P6SM FEW015 BKN025
     FM270800 15004KT 5SM BR BKN015
     FM271500 17009KT P6SM BKN025=

USA.gov is the U.S. government's official web portal to all federal, state and local government web resources and services.